createdAt,value
2018-02-02T00:00:34.357Z,63.10
2018-02-02T00:03:01.818Z,63.10
2018-02-02T00:05:29.268Z,63.20
2018-02-02T00:07:56.740Z,63.20
2018-02-02T00:10:24.192Z,63.20
2018-02-02T00:12:51.652Z,63.10
2018-02-02T00:15:19.098Z,63.20
2018-02-02T00:17:46.582Z,63.20
2018-02-02T00:20:14.031Z,63.30
2018-02-02T00:22:41.502Z,63.30
2018-02-02T00:25:08.957Z,63.20
2018-02-02T00:27:36.408Z,63.10
2018-02-02T00:30:03.863Z,63.10
2018-02-02T00:32:31.319Z,63.00
2018-02-02T00:34:58.779Z,62.90
2018-02-02T00:37:26.226Z,63.00
2018-02-02T00:39:53.696Z,62.90
2018-02-02T00:42:21.145Z,62.80
2018-02-02T00:44:48.598Z,62.80
2018-02-02T00:47:16.046Z,62.80
2018-02-02T00:49:43.507Z,62.70
2018-02-02T00:52:10.955Z,62.80
2018-02-02T00:54:38.408Z,62.70
2018-02-02T00:57:05.866Z,62.70
2018-02-02T00:59:33.318Z,62.60
2018-02-02T01:02:01.557Z,62.30
2018-02-02T01:04:29.052Z,62.60
2018-02-02T01:06:56.564Z,62.70
2018-02-02T01:09:24.006Z,62.90
2018-02-02T01:11:52.405Z,62.80
2018-02-02T01:14:19.851Z,62.80
2018-02-02T01:16:47.316Z,63.10
2018-02-02T01:19:15.521Z,63.20
2018-02-02T01:21:42.993Z,63.20
2018-02-02T01:24:10.443Z,63.30
2018-02-02T01:26:37.897Z,63.20
2018-02-02T01:29:05.348Z,63.20
2018-02-02T01:31:32.796Z,63.40
2018-02-02T01:34:00.254Z,63.20
2018-02-02T01:36:27.709Z,63.40
2018-02-02T01:38:55.175Z,63.40
2018-02-02T01:41:22.646Z,64.10
2018-02-02T01:43:50.103Z,63.40
2018-02-02T01:46:17.556Z,63.30
2018-02-02T01:48:45.182Z,63.30
2018-02-02T01:51:12.673Z,63.40
2018-02-02T01:53:40.139Z,63.60
2018-02-02T01:56:07.590Z,63.60
2018-02-02T01:58:35.055Z,63.70
2018-02-02T02:01:02.514Z,63.70
2018-02-02T02:03:29.965Z,63.80
2018-02-02T02:05:58.183Z,64.00
2018-02-02T02:08:26.394Z,64.10
2018-02-02T02:10:53.880Z,64.10
2018-02-02T02:13:21.331Z,64.10
2018-02-02T02:15:48.803Z,63.90
2018-02-02T02:18:16.277Z,63.80
2018-02-02T02:20:43.738Z,63.70
2018-02-02T02:23:11.176Z,63.60
2018-02-02T02:25:38.629Z,63.50
2018-02-02T02:28:06.091Z,63.50
2018-02-02T02:30:33.542Z,62.80
2018-02-02T02:33:00.986Z,63.40
2018-02-02T02:35:28.438Z,63.40
2018-02-02T02:37:55.894Z,63.50
2018-02-02T02:40:23.356Z,63.40
2018-02-02T02:42:50.841Z,63.20
2018-02-02T02:45:18.282Z,63.00
2018-02-02T02:47:45.735Z,62.90
2018-02-02T02:50:13.962Z,63.70
2018-02-02T02:52:41.409Z,63.00
2018-02-02T02:55:09.626Z,63.60
2018-02-02T02:57:37.071Z,62.90
2018-02-02T03:00:04.530Z,62.90
2018-02-02T03:02:31.980Z,62.80
2018-02-02T03:04:59.418Z,62.80
2018-02-02T03:07:26.874Z,62.80
2018-02-02T03:09:54.334Z,62.80
2018-02-02T03:12:21.786Z,62.80
2018-02-02T03:14:49.233Z,62.70
2018-02-02T03:17:17.466Z,63.10
2018-02-02T03:19:44.910Z,63.10
2018-02-02T03:22:12.368Z,63.20
2018-02-02T03:24:39.823Z,63.30
2018-02-02T03:27:07.341Z,63.00
2018-02-02T03:29:34.785Z,63.00
2018-02-02T03:32:03.031Z,62.90
2018-02-02T03:34:31.250Z,63.00
2018-02-02T03:36:58.716Z,62.90
2018-02-02T03:39:27.019Z,63.30
2018-02-02T03:41:54.473Z,63.80
2018-02-02T03:44:21.973Z,63.60
2018-02-02T03:46:49.373Z,63.80
2018-02-02T03:49:17.121Z,63.60
2018-02-02T03:51:44.565Z,63.40
2018-02-02T03:54:12.019Z,63.20
2018-02-02T03:56:39.453Z,63.00
2018-02-02T03:59:06.915Z,62.90
2018-02-02T04:01:34.370Z,62.70
2018-02-02T04:04:01.834Z,63.20
2018-02-02T04:06:29.287Z,63.10
2018-02-02T04:08:56.781Z,63.10
2018-02-02T04:11:24.234Z,63.10
2018-02-02T04:13:51.684Z,62.80
2018-02-02T04:16:19.145Z,62.80
2018-02-02T04:18:47.542Z,62.70
2018-02-02T04:21:15.003Z,62.80
2018-02-02T04:23:42.454Z,62.70
2018-02-02T04:26:09.904Z,62.70
2018-02-02T04:28:37.351Z,62.50
2018-02-02T04:31:04.810Z,62.70
2018-02-02T04:33:32.257Z,62.80
2018-02-02T04:36:09.646Z,62.80
2018-02-02T04:38:37.867Z,63.10
2018-02-02T04:41:05.306Z,63.10
2018-02-02T04:43:32.762Z,63.10
2018-02-02T04:46:00.205Z,63.20
2018-02-02T04:48:27.669Z,63.40
2018-02-02T04:50:55.123Z,63.40
2018-02-02T04:53:22.579Z,63.40
2018-02-02T04:55:50.029Z,63.40
2018-02-02T04:58:17.497Z,63.30
2018-02-02T05:00:44.952Z,63.60
2018-02-02T05:03:12.401Z,63.80
2018-02-02T05:05:39.858Z,63.60
2018-02-02T05:08:07.324Z,63.40
2018-02-02T05:10:34.771Z,63.20
2018-02-02T05:13:02.233Z,63.20
2018-02-02T05:15:29.682Z,63.60
2018-02-02T05:17:57.155Z,63.90
2018-02-02T05:20:24.608Z,63.70
2018-02-02T05:22:52.071Z,63.40
2018-02-02T05:25:19.558Z,63.30
2018-02-02T05:27:47.012Z,63.20
2018-02-02T05:30:14.458Z,63.20
2018-02-02T05:32:41.922Z,63.20
2018-02-02T05:35:09.369Z,63.20
2018-02-02T05:37:36.854Z,63.10
2018-02-02T05:40:04.314Z,63.00
2018-02-02T05:42:31.757Z,63.00
2018-02-02T05:45:00.059Z,62.90
2018-02-02T05:47:27.494Z,63.00
2018-02-02T05:49:54.959Z,62.40
2018-02-02T05:52:22.411Z,63.10
2018-02-02T05:54:49.898Z,63.10
2018-02-02T05:57:17.350Z,62.90
2018-02-02T05:59:44.800Z,63.00
2018-02-02T06:02:12.237Z,63.00
2018-02-02T06:04:39.693Z,63.80
2018-02-02T06:07:07.151Z,62.80
2018-02-02T06:09:34.602Z,62.70
2018-02-02T06:12:02.066Z,63.00
2018-02-02T06:14:29.518Z,62.90
2018-02-02T06:16:56.975Z,63.00
2018-02-02T06:19:40.001Z,62.90
2018-02-02T06:22:07.470Z,62.90
2018-02-02T06:24:34.918Z,62.80
2018-02-02T06:27:02.379Z,62.50
2018-02-02T06:29:29.831Z,62.50
2018-02-02T06:31:57.294Z,62.50
2018-02-02T06:34:24.745Z,62.30
2018-02-02T06:37:06.853Z,62.40
2018-02-02T06:39:34.313Z,62.30
2018-02-02T06:42:01.777Z,62.50
2018-02-02T06:44:29.225Z,62.30
2018-02-02T06:46:56.687Z,62.20
2018-02-02T06:49:24.127Z,62.30
2018-02-02T06:51:51.598Z,61.80
2018-02-02T06:54:19.203Z,61.40
2018-02-02T06:56:46.659Z,62.10
2018-02-02T06:59:14.098Z,61.30
2018-02-02T07:01:41.571Z,61.90
2018-02-02T07:04:09.018Z,61.80
2018-02-02T07:06:36.467Z,61.80
2018-02-02T07:09:03.921Z,61.90
2018-02-02T07:11:32.165Z,61.70
2018-02-02T07:13:59.621Z,61.70
2018-02-02T07:16:27.236Z,62.20
2018-02-02T07:18:55.041Z,62.20
2018-02-02T07:21:22.765Z,61.90
2018-02-02T07:23:50.221Z,62.00
2018-02-02T07:26:17.669Z,61.80
2018-02-02T07:28:45.137Z,62.00
2018-02-02T07:31:12.577Z,62.10
2018-02-02T07:33:40.039Z,61.90
2018-02-02T07:36:07.490Z,61.60
2018-02-02T07:38:34.955Z,61.50
2018-02-02T07:41:02.403Z,61.60
2018-02-02T07:43:29.877Z,61.60
2018-02-02T07:45:57.330Z,61.30
2018-02-02T07:48:25.094Z,61.20
2018-02-02T07:50:52.529Z,61.10
2018-02-02T07:53:20.751Z,60.90
2018-02-02T07:55:48.186Z,61.50
2018-02-02T07:58:16.662Z,60.70
2018-02-02T08:00:49.793Z,60.60
2018-02-02T08:03:17.263Z,60.50
2018-02-02T08:05:44.725Z,60.40
2018-02-02T08:08:12.242Z,60.40
2018-02-02T08:10:39.694Z,60.30
2018-02-02T08:13:07.202Z,60.30
2018-02-02T08:15:34.658Z,60.60
2018-02-02T08:18:02.170Z,60.80
2018-02-02T08:20:29.625Z,60.80
2018-02-02T08:22:57.066Z,60.50
2018-02-02T08:25:24.540Z,60.40
2018-02-02T08:27:51.981Z,60.20
2018-02-02T08:30:19.445Z,60.20
2018-02-02T08:32:46.887Z,60.10
2018-02-02T08:35:14.341Z,60.40
2018-02-02T08:37:41.773Z,60.30
2018-02-02T08:40:09.230Z,60.10
2018-02-02T08:42:36.674Z,60.00
2018-02-02T08:45:04.122Z,60.00
2018-02-02T08:47:31.635Z,59.90
2018-02-02T08:49:59.071Z,59.90
2018-02-02T08:52:26.543Z,60.20
2018-02-02T08:54:54.253Z,60.10
2018-02-02T08:57:21.711Z,60.20
2018-02-02T08:59:49.197Z,59.50
2018-02-02T09:02:16.707Z,60.00
2018-02-02T09:04:44.173Z,60.00
2018-02-02T09:07:11.630Z,60.00
2018-02-02T09:09:39.126Z,60.00
2018-02-02T09:12:07.406Z,60.00
2018-02-02T09:14:34.858Z,60.00
2018-02-02T09:17:02.349Z,60.00
2018-02-02T09:19:29.799Z,60.20
2018-02-02T09:21:56.775Z,60.00
2018-02-02T09:24:24.515Z,60.20
2018-02-02T09:26:51.974Z,60.20
2018-02-02T09:29:19.431Z,60.30
2018-02-02T09:31:47.190Z,60.20
2018-02-02T09:34:14.709Z,60.30
2018-02-02T09:36:42.938Z,60.50
2018-02-02T09:39:10.390Z,60.40
2018-02-02T09:41:37.863Z,60.40
2018-02-02T09:44:05.419Z,60.30
2018-02-02T09:46:32.888Z,60.40
2018-02-02T09:49:00.415Z,60.30
2018-02-02T09:51:28.058Z,60.20
2018-02-02T09:53:56.274Z,61.10
2018-02-02T09:56:23.737Z,60.30
2018-02-02T09:58:51.207Z,61.20
2018-02-02T10:01:18.689Z,60.50
2018-02-02T10:03:46.155Z,60.50
2018-02-02T10:06:13.631Z,60.30
2018-02-02T10:08:41.091Z,60.40
2018-02-02T10:11:08.551Z,60.30
2018-02-02T10:13:36.003Z,60.40
2018-02-02T10:16:03.461Z,60.60
2018-02-02T10:18:30.911Z,60.40
2018-02-02T10:20:58.371Z,60.30
2018-02-02T10:23:25.830Z,60.50
2018-02-02T10:25:53.292Z,60.50
2018-02-02T10:28:20.738Z,60.50
2018-02-02T10:30:48.198Z,60.40
2018-02-02T10:33:15.761Z,60.30
2018-02-02T10:35:43.217Z,60.40
2018-02-02T10:38:10.673Z,60.40
2018-02-02T10:40:38.129Z,60.20
2018-02-02T10:43:05.611Z,60.00
2018-02-02T10:45:33.057Z,60.60
2018-02-02T10:48:00.509Z,59.90
2018-02-02T10:50:27.958Z,59.70
2018-02-02T10:52:55.419Z,59.50
2018-02-02T10:55:22.874Z,59.60
2018-02-02T10:57:50.347Z,59.70
2018-02-02T11:00:17.799Z,59.80
2018-02-02T11:03:03.059Z,59.80
2018-02-02T11:05:30.515Z,59.90
2018-02-02T11:07:57.957Z,60.10
2018-02-02T11:10:25.411Z,60.30
2018-02-02T11:12:53.639Z,60.70
2018-02-02T11:15:21.087Z,60.70
2018-02-02T11:17:48.542Z,60.70
2018-02-02T11:20:15.990Z,60.60
2018-02-02T11:22:43.464Z,60.80
2018-02-02T11:25:10.915Z,60.80
2018-02-02T11:27:38.368Z,60.70
2018-02-02T11:30:05.813Z,61.00
2018-02-02T11:32:33.274Z,60.90
2018-02-02T11:35:00.735Z,60.60
2018-02-02T11:37:28.203Z,60.80
2018-02-02T11:39:55.666Z,61.00
2018-02-02T11:42:23.114Z,61.00
2018-02-02T11:44:50.574Z,61.00
2018-02-02T11:47:18.030Z,60.90
2018-02-02T11:49:45.489Z,60.70
2018-02-02T11:52:12.951Z,60.90
2018-02-02T11:54:40.417Z,60.80
2018-02-02T11:57:08.661Z,60.80
2018-02-02T11:59:36.150Z,60.80
2018-02-02T12:02:03.645Z,60.60
2018-02-02T12:04:31.138Z,60.60
2018-02-02T12:06:58.590Z,60.60
2018-02-02T12:09:26.223Z,60.60
2018-02-02T12:11:54.441Z,60.60
2018-02-02T12:14:21.893Z,60.50
2018-02-02T12:16:49.367Z,60.50
2018-02-02T12:19:16.881Z,60.50
2018-02-02T12:21:46.769Z,60.60
2018-02-02T12:24:15.092Z,60.00
2018-02-02T12:26:48.062Z,60.60
2018-02-02T12:29:17.119Z,60.60
2018-02-02T12:31:50.360Z,60.50
2018-02-02T12:34:22.075Z,60.50
2018-02-02T12:36:49.663Z,60.40
2018-02-02T12:39:17.181Z,60.40
2018-02-02T12:41:44.808Z,60.50
2018-02-02T12:44:12.397Z,60.80
2018-02-02T12:46:39.939Z,60.50
2018-02-02T12:49:07.386Z,60.90
2018-02-02T12:51:34.882Z,60.30
2018-02-02T12:54:03.103Z,60.80
2018-02-02T12:56:30.574Z,60.60
2018-02-02T12:58:58.039Z,60.70
2018-02-02T13:01:25.502Z,60.80
2018-02-02T13:03:52.957Z,60.80
2018-02-02T13:06:20.423Z,60.70
2018-02-02T13:08:47.878Z,60.80
2018-02-02T13:11:15.341Z,61.00
2018-02-02T13:13:42.787Z,61.10
2018-02-02T13:16:10.262Z,61.00
2018-02-02T13:18:37.706Z,61.00
2018-02-02T13:21:05.162Z,60.70
2018-02-02T13:23:32.613Z,60.70
2018-02-02T13:26:00.080Z,60.50
2018-02-02T13:28:27.537Z,60.50
2018-02-02T13:30:54.991Z,60.50
2018-02-02T13:33:22.463Z,60.70
2018-02-02T13:35:50.687Z,60.60
2018-02-02T13:38:18.134Z,60.40
2018-02-02T13:43:23.091Z,60.40
2018-02-02T13:48:19.673Z,59.20
2018-02-02T13:50:47.859Z,59.40
2018-02-02T13:53:16.097Z,59.30
2018-02-02T13:55:44.298Z,59.20
2018-02-02T13:58:12.524Z,59.40
2018-02-02T14:02:36.380Z,59.50
2018-02-02T14:05:04.697Z,59.20
2018-02-02T14:07:32.902Z,59.20
2018-02-02T14:10:01.124Z,59.20
2018-02-02T14:12:29.346Z,59.20
2018-02-02T14:16:48.139Z,59.10
